createdAt,value
2022-12-18T00:00:15.561Z,5.74
2022-12-18T00:02:46.006Z,5.71
2022-12-18T00:05:15.219Z,5.73
2022-12-18T00:07:44.049Z,5.73
2022-12-18T00:10:15.186Z,5.71
2022-12-18T00:12:47.332Z,5.67
2022-12-18T00:15:16.331Z,5.50
2022-12-18T00:17:45.329Z,5.72
2022-12-18T00:20:14.948Z,5.69
2022-12-18T00:22:43.762Z,5.66
2022-12-18T00:25:12.796Z,5.56
2022-12-18T00:27:41.840Z,5.54
2022-12-18T00:31:06.446Z,5.83
2022-12-18T00:33:37.440Z,5.73
2022-12-18T00:36:13.011Z,5.92
2022-12-18T00:38:43.088Z,5.79
2022-12-18T00:41:13.785Z,5.58
2022-12-18T00:43:42.959Z,5.55
2022-12-18T00:46:11.869Z,5.55
2022-12-18T00:48:40.973Z,5.53
2022-12-18T00:51:10.773Z,5.49
2022-12-18T00:53:39.945Z,5.44
2022-12-18T00:56:08.999Z,5.51
2022-12-18T00:58:37.973Z,5.25
2022-12-18T01:01:08.123Z,5.58
2022-12-18T01:03:37.284Z,5.24
2022-12-18T01:06:11.091Z,5.22
2022-12-18T01:08:40.853Z,5.02
2022-12-18T01:11:14.604Z,5.05
2022-12-18T01:13:44.740Z,4.81
2022-12-18T01:16:18.228Z,4.74
2022-12-18T01:18:47.595Z,4.58
2022-12-18T01:21:18.322Z,4.49
2022-12-18T01:23:47.692Z,4.29
2022-12-18T01:26:17.919Z,4.00
2022-12-18T01:28:47.187Z,3.87
2022-12-18T01:31:22.581Z,3.91
2022-12-18T01:33:53.483Z,3.72
2022-12-18T01:36:28.328Z,3.61
2022-12-18T01:38:58.730Z,3.63
2022-12-18T01:41:54.384Z,3.33
2022-12-18T01:44:57.527Z,3.67
2022-12-18T01:47:45.395Z,3.98
2022-12-18T01:50:20.099Z,3.91
2022-12-18T01:53:16.778Z,3.58
2022-12-18T01:55:54.819Z,3.65
2022-12-18T01:58:31.397Z,3.58
2022-12-18T02:01:01.067Z,3.57
2022-12-18T02:03:29.830Z,3.59
2022-12-18T02:06:14.086Z,3.72
2022-12-18T02:08:46.220Z,3.72
2022-12-18T02:11:15.049Z,4.06
2022-12-18T02:13:48.804Z,4.50
2022-12-18T02:16:36.404Z,4.95
2022-12-18T02:19:31.207Z,5.10
2022-12-18T02:22:29.118Z,5.62
2022-12-18T02:25:23.163Z,5.47
2022-12-18T02:27:54.923Z,5.62
2022-12-18T02:30:24.817Z,6.04
2022-12-18T02:32:56.584Z,6.78
2022-12-18T02:35:30.959Z,7.40
2022-12-18T02:38:02.604Z,7.66
2022-12-18T02:40:35.211Z,7.60
2022-12-18T02:43:15.845Z,8.46
2022-12-18T02:45:56.226Z,8.78
2022-12-18T02:48:33.692Z,9.07
2022-12-18T02:51:17.058Z,9.47
2022-12-18T02:54:14.861Z,9.85
2022-12-18T02:56:56.210Z,9.82
2022-12-18T02:59:40.098Z,9.43
2022-12-18T03:02:36.012Z,9.21
2022-12-18T03:05:13.205Z,9.01
2022-12-18T03:08:06.438Z,8.71
2022-12-18T03:10:44.996Z,8.58
2022-12-18T03:13:33.742Z,8.41
2022-12-18T03:16:07.957Z,8.75
2022-12-18T03:18:50.629Z,8.90
2022-12-18T03:21:25.406Z,8.84
2022-12-18T03:23:56.683Z,8.89
2022-12-18T03:26:30.231Z,8.95
2022-12-18T03:29:08.552Z,9.01
2022-12-18T03:31:42.640Z,8.95
2022-12-18T03:34:18.439Z,8.88
2022-12-18T03:36:49.123Z,9.04
2022-12-18T03:39:18.623Z,8.91
2022-12-18T03:42:09.871Z,9.09
2022-12-18T03:44:46.616Z,9.24
2022-12-18T03:47:17.884Z,9.31
2022-12-18T03:50:21.346Z,9.31
2022-12-18T03:53:02.278Z,9.43
2022-12-18T03:55:35.699Z,9.48
2022-12-18T03:58:09.675Z,9.57
2022-12-18T04:00:52.535Z,9.40
2022-12-18T04:03:26.470Z,9.45
2022-12-18T04:05:57.842Z,9.49
2022-12-18T04:08:28.007Z,9.67
2022-12-18T04:11:04.591Z,9.73
2022-12-18T04:13:38.757Z,9.72
2022-12-18T04:16:12.653Z,9.83
2022-12-18T04:18:44.794Z,9.88
2022-12-18T04:21:15.834Z,9.83
2022-12-18T04:23:45.237Z,9.92
2022-12-18T04:26:14.558Z,9.99
2022-12-18T04:29:03.653Z,10.39
2022-12-18T04:31:32.924Z,10.33
2022-12-18T04:34:01.787Z,10.40
2022-12-18T04:36:31.300Z,10.53
2022-12-18T04:39:00.441Z,10.55
2022-12-18T04:41:30.157Z,10.78
2022-12-18T04:43:59.805Z,10.63
2022-12-18T04:46:29.064Z,10.74
2022-12-18T04:48:57.858Z,10.86
2022-12-18T04:51:27.131Z,11.01
2022-12-18T04:53:55.932Z,11.12
2022-12-18T04:56:25.405Z,11.24
2022-12-18T04:58:54.204Z,11.55
2022-12-18T05:01:23.178Z,12.07
2022-12-18T05:03:53.665Z,12.31
2022-12-18T05:06:22.765Z,12.39
2022-12-18T05:08:51.586Z,12.50
2022-12-18T05:11:20.487Z,12.75
2022-12-18T05:13:49.268Z,13.12
2022-12-18T05:16:18.098Z,13.17
2022-12-18T05:18:46.918Z,13.50
2022-12-18T05:21:15.932Z,13.51
2022-12-18T05:23:44.738Z,13.74
2022-12-18T05:26:20.057Z,14.46
2022-12-18T05:28:49.099Z,14.46
2022-12-18T05:31:17.742Z,14.75
2022-12-18T05:33:46.901Z,14.79
2022-12-18T05:36:15.749Z,15.07
2022-12-18T05:38:45.030Z,14.99
2022-12-18T05:41:14.268Z,15.02
2022-12-18T05:43:44.235Z,14.69
2022-12-18T05:46:17.011Z,14.73
2022-12-18T05:48:47.177Z,14.50
2022-12-18T05:51:18.512Z,14.37
2022-12-18T05:53:48.023Z,14.18
2022-12-18T05:56:23.003Z,14.05
2022-12-18T05:58:56.436Z,13.90
2022-12-18T06:01:45.434Z,13.92
2022-12-18T06:04:15.335Z,13.54
2022-12-18T06:06:44.254Z,13.36
2022-12-18T06:09:13.847Z,13.34
2022-12-18T06:11:42.839Z,13.43
2022-12-18T06:14:12.337Z,13.82
2022-12-18T06:16:41.032Z,13.83
2022-12-18T06:19:10.199Z,13.91
2022-12-18T06:21:39.137Z,14.00
2022-12-18T06:24:08.459Z,14.09
2022-12-18T06:26:40.585Z,14.39
2022-12-18T06:29:09.827Z,15.30
2022-12-18T06:31:39.847Z,16.14
2022-12-18T06:34:08.822Z,16.96
2022-12-18T06:36:37.671Z,17.33
2022-12-18T06:39:07.628Z,17.69
2022-12-18T06:41:36.977Z,18.13
2022-12-18T06:44:07.938Z,18.51
2022-12-18T06:46:37.115Z,18.33
2022-12-18T06:49:06.274Z,19.18
2022-12-18T06:51:35.202Z,19.92
2022-12-18T06:54:04.353Z,19.76
2022-12-18T06:56:33.662Z,19.30
2022-12-18T06:59:02.744Z,20.11
2022-12-18T07:01:32.119Z,19.42
2022-12-18T07:04:01.183Z,20.60
2022-12-18T07:06:30.221Z,20.49
2022-12-18T07:08:59.396Z,21.09
2022-12-18T07:11:28.634Z,20.42
2022-12-18T07:13:57.463Z,20.74
2022-12-18T07:16:26.828Z,21.23
2022-12-18T07:18:58.074Z,20.82
2022-12-18T07:21:27.513Z,20.66
2022-12-18T07:23:56.398Z,20.18
2022-12-18T07:26:25.824Z,21.41
2022-12-18T07:28:59.393Z,20.98
2022-12-18T07:31:28.934Z,21.65
2022-12-18T07:33:58.316Z,21.82
2022-12-18T07:36:27.519Z,20.73
2022-12-18T07:38:56.433Z,20.06
2022-12-18T07:41:25.268Z,20.61
2022-12-18T07:43:54.663Z,20.25
2022-12-18T07:46:23.781Z,21.24
2022-12-18T07:48:52.805Z,21.44
2022-12-18T07:51:21.821Z,20.10
2022-12-18T07:53:52.226Z,20.77
2022-12-18T07:56:28.143Z,20.94
2022-12-18T07:58:59.497Z,19.69
2022-12-18T08:01:28.801Z,21.57
2022-12-18T08:04:00.379Z,21.79
2022-12-18T08:06:29.464Z,21.88
2022-12-18T08:08:58.649Z,21.68
2022-12-18T08:11:29.742Z,20.83
2022-12-18T08:13:59.769Z,20.91
2022-12-18T08:16:28.838Z,21.52
2022-12-18T08:18:58.346Z,21.25
2022-12-18T08:21:30.318Z,21.32
2022-12-18T08:24:01.656Z,20.49
2022-12-18T08:26:32.840Z,19.78
2022-12-18T08:29:03.706Z,20.45
2022-12-18T08:31:33.197Z,20.46
2022-12-18T08:34:02.510Z,19.75
2022-12-18T08:36:31.576Z,19.92
2022-12-18T08:39:00.531Z,20.00
2022-12-18T08:41:29.430Z,20.71
2022-12-18T08:44:17.577Z,20.31
2022-12-18T08:46:46.704Z,19.97
2022-12-18T08:49:15.737Z,20.01
2022-12-18T08:51:44.856Z,19.64
2022-12-18T08:54:15.695Z,19.42
2022-12-18T08:56:44.875Z,19.10
2022-12-18T08:59:19.343Z,19.18
2022-12-18T09:01:50.326Z,19.35
2022-12-18T09:04:20.108Z,18.72
2022-12-18T09:06:48.811Z,18.67
2022-12-18T09:09:17.968Z,18.37
2022-12-18T09:11:47.032Z,18.95
2022-12-18T09:14:16.582Z,18.66
2022-12-18T09:16:45.869Z,18.82
2022-12-18T09:19:15.440Z,18.25
2022-12-18T09:21:47.975Z,18.50
2022-12-18T09:24:18.994Z,18.72
2022-12-18T09:26:58.099Z,18.29
2022-12-18T09:29:27.338Z,18.38
2022-12-18T09:31:56.107Z,18.50
2022-12-18T09:34:27.394Z,17.86
2022-12-18T09:36:57.284Z,17.82
2022-12-18T09:39:26.197Z,17.53
2022-12-18T09:41:59.719Z,17.39
2022-12-18T09:44:33.625Z,17.90
2022-12-18T09:47:36.032Z,17.61
2022-12-18T09:50:19.180Z,17.37
2022-12-18T09:52:54.382Z,17.13
2022-12-18T09:55:37.624Z,17.20
2022-12-18T09:58:19.625Z,17.46
2022-12-18T10:00:48.591Z,17.68
2022-12-18T10:03:18.248Z,17.38
2022-12-18T10:06:24.482Z,17.51
2022-12-18T10:09:11.994Z,17.57
2022-12-18T10:11:51.179Z,17.13
2022-12-18T10:14:32.446Z,17.09
2022-12-18T10:17:26.119Z,17.32
2022-12-18T10:20:07.295Z,17.41
2022-12-18T10:23:12.349Z,17.17
2022-12-18T10:25:44.535Z,17.04
2022-12-18T10:28:16.840Z,16.59
2022-12-18T10:30:46.568Z,16.54
2022-12-18T10:33:30.482Z,16.44
2022-12-18T10:35:59.853Z,16.35
2022-12-18T10:38:30.676Z,15.97
2022-12-18T10:41:07.411Z,15.77
2022-12-18T10:43:42.815Z,15.74
2022-12-18T10:46:11.877Z,15.24
2022-12-18T10:48:51.622Z,15.24
2022-12-18T10:51:30.624Z,14.70
2022-12-18T10:54:23.706Z,14.03
2022-12-18T10:56:52.931Z,13.32
2022-12-18T10:59:22.025Z,12.53
2022-12-18T11:01:58.275Z,12.26
2022-12-18T11:04:37.093Z,11.82
2022-12-18T11:07:12.657Z,11.47
2022-12-18T11:09:42.684Z,11.08
2022-12-18T11:12:19.635Z,10.94
2022-12-18T11:14:57.883Z,10.41
2022-12-18T11:17:34.846Z,10.36
2022-12-18T11:20:21.530Z,9.97
2022-12-18T11:23:06.634Z,9.66
2022-12-18T11:25:36.435Z,9.52
2022-12-18T11:28:31.171Z,9.45
2022-12-18T11:31:26.427Z,9.22
2022-12-18T11:34:32.727Z,8.92
2022-12-18T11:37:05.219Z,8.59
2022-12-18T11:39:52.216Z,8.66
2022-12-18T11:42:35.043Z,8.58
2022-12-18T11:45:16.405Z,8.47
2022-12-18T11:48:05.323Z,8.38
2022-12-18T11:51:00.823Z,8.26
2022-12-18T11:53:32.861Z,8.05
2022-12-18T11:56:28.634Z,7.98
2022-12-18T11:58:58.655Z,7.80
2022-12-18T12:01:48.196Z,7.66
2022-12-18T12:05:26.661Z,7.61
2022-12-18T12:08:29.674Z,7.60
2022-12-18T12:11:44.367Z,7.41
2022-12-18T12:14:28.360Z,7.44
2022-12-18T12:17:32.000Z,7.31
2022-12-18T12:20:21.077Z,6.92
2022-12-18T12:23:02.414Z,7.16
2022-12-18T12:25:43.314Z,7.20
2022-12-18T12:28:35.851Z,7.05
2022-12-18T12:31:46.950Z,7.12
2022-12-18T12:34:33.714Z,7.04
2022-12-18T12:37:25.872Z,6.76
2022-12-18T12:39:56.984Z,6.53
2022-12-18T12:43:05.114Z,6.40
2022-12-18T12:45:56.587Z,6.14
2022-12-18T12:48:25.558Z,6.01
2022-12-18T12:50:57.164Z,5.63
2022-12-18T12:53:32.785Z,5.41
2022-12-18T12:56:01.990Z,5.12
2022-12-18T12:59:13.100Z,5.15
2022-12-18T13:02:23.881Z,5.13
2022-12-18T13:05:06.153Z,5.10
2022-12-18T13:07:48.201Z,5.15
2022-12-18T13:10:25.639Z,5.15
2022-12-18T13:13:03.455Z,5.13
2022-12-18T13:15:46.813Z,5.12
2022-12-18T13:18:24.635Z,5.07
2022-12-18T13:21:21.113Z,4.89
2022-12-18T13:23:51.274Z,4.73
2022-12-18T13:26:24.738Z,4.72
2022-12-18T13:28:59.959Z,4.56
2022-12-18T13:31:41.194Z,4.37
2022-12-18T13:34:32.687Z,4.25
2022-12-18T13:37:39.134Z,4.13
2022-12-18T13:40:46.510Z,4.08
2022-12-18T13:44:16.735Z,4.12
2022-12-18T13:46:51.805Z,3.97
2022-12-18T13:49:26.773Z,4.07
2022-12-18T13:51:58.385Z,3.97
2022-12-18T13:54:32.755Z,4.03
2022-12-18T13:57:02.050Z,3.94
2022-12-18T13:59:39.268Z,4.00
2022-12-18T14:02:17.054Z,3.73
2022-12-18T14:04:50.742Z,3.76
2022-12-18T14:07:33.046Z,3.84
2022-12-18T14:13:13.491Z,3.72
2022-12-18T14:15:46.231Z,3.76
2022-12-18T14:18:30.694Z,3.58
2022-12-18T14:21:02.063Z,3.62
2022-12-18T14:23:41.528Z,3.61
2022-12-18T14:26:30.980Z,3.56
2022-12-18T14:29:06.299Z,3.52
2022-12-18T14:31:35.649Z,3.43
2022-12-18T14:34:04.646Z,3.11
2022-12-18T14:36:33.530Z,3.29
2022-12-18T14:39:02.321Z,3.10
2022-12-18T14:41:31.468Z,3.28
2022-12-18T14:44:08.990Z,3.23
2022-12-18T14:46:40.725Z,3.24
2022-12-18T14:49:31.407Z,3.25
2022-12-18T14:52:16.816Z,3.20
2022-12-18T14:54:50.101Z,2.96
2022-12-18T14:57:32.735Z,3.26
2022-12-18T15:00:14.524Z,3.28
2022-12-18T15:02:46.674Z,3.22
2022-12-18T15:05:21.889Z,3.08
2022-12-18T15:07:54.351Z,3.11
2022-12-18T15:10:26.176Z,2.99
2022-12-18T15:12:58.009Z,3.22
2022-12-18T15:15:39.201Z,3.19
2022-12-18T15:18:13.734Z,3.16
2022-12-18T15:20:51.312Z,3.10
2022-12-18T15:23:30.230Z,3.04
2022-12-18T15:26:09.580Z,2.78
2022-12-18T15:28:57.213Z,3.08
2022-12-18T15:31:37.285Z,2.91
2022-12-18T15:34:22.510Z,2.73
2022-12-18T15:36:53.427Z,2.96
2022-12-18T15:39:22.734Z,3.06
2022-12-18T15:42:10.694Z,2.72
2022-12-18T15:44:40.543Z,2.99
2022-12-18T15:47:15.291Z,2.85
2022-12-18T15:49:45.034Z,3.02
2022-12-18T15:52:16.015Z,2.73
2022-12-18T15:55:03.271Z,2.81
2022-12-18T15:57:32.655Z,2.66
2022-12-18T16:00:01.603Z,2.40
2022-12-18T16:02:33.293Z,2.87
2022-12-18T16:05:02.348Z,2.74
2022-12-18T16:07:31.139Z,2.38
2022-12-18T16:10:02.596Z,2.73
2022-12-18T16:12:32.790Z,2.71
2022-12-18T16:15:02.965Z,2.67
2022-12-18T16:17:31.714Z,2.68
2022-12-18T16:20:01.376Z,2.91
2022-12-18T16:22:31.616Z,3.01
2022-12-18T16:25:00.942Z,2.67
2022-12-18T16:27:29.669Z,2.94
2022-12-18T16:29:58.610Z,2.90
2022-12-18T16:32:27.782Z,2.87
2022-12-18T16:35:03.066Z,2.84
2022-12-18T16:37:32.138Z,2.60
2022-12-18T16:40:00.926Z,2.66
2022-12-18T16:42:30.059Z,2.54
2022-12-18T16:44:58.747Z,2.69
2022-12-18T16:47:27.983Z,2.46
2022-12-18T16:49:57.132Z,2.61
2022-12-18T16:52:28.907Z,2.63
2022-12-18T16:54:58.771Z,2.55
2022-12-18T16:57:27.653Z,2.47
2022-12-18T17:00:01.315Z,2.50
2022-12-18T17:02:34.554Z,2.61
2022-12-18T17:05:03.426Z,2.43
2022-12-18T17:07:33.594Z,2.58
2022-12-18T17:10:03.543Z,2.27
2022-12-18T17:12:33.100Z,2.68
2022-12-18T17:15:01.826Z,2.68
2022-12-18T17:17:31.215Z,2.77
2022-12-18T17:20:00.215Z,2.84
2022-12-18T17:22:30.395Z,2.75
2022-12-18T17:25:00.134Z,2.78
2022-12-18T17:27:29.211Z,2.68
2022-12-18T17:29:58.495Z,2.60
2022-12-18T17:32:27.248Z,2.63
2022-12-18T17:34:56.190Z,2.71
2022-12-18T17:37:26.668Z,2.74
2022-12-18T17:39:55.950Z,2.72
2022-12-18T17:42:24.872Z,2.63
2022-12-18T17:44:54.175Z,2.68
2022-12-18T17:47:23.158Z,2.71
2022-12-18T17:49:52.797Z,2.50
2022-12-18T17:52:22.342Z,2.50
2022-12-18T17:54:51.034Z,2.18
2022-12-18T17:57:19.862Z,2.47
2022-12-18T17:59:56.173Z,2.38
2022-12-18T18:02:25.720Z,2.27
2022-12-18T18:04:55.548Z,2.01
2022-12-18T18:07:24.696Z,2.31
2022-12-18T18:09:53.421Z,2.28
2022-12-18T18:12:40.775Z,2.16
2022-12-18T18:15:10.495Z,2.27
2022-12-18T18:17:40.039Z,2.19
2022-12-18T18:20:09.604Z,2.03
2022-12-18T18:22:38.317Z,2.00
2022-12-18T18:25:07.575Z,2.25
2022-12-18T18:27:39.340Z,2.48
2022-12-18T18:30:08.640Z,2.62
2022-12-18T18:32:40.843Z,2.86
2022-12-18T18:35:24.547Z,3.17
2022-12-18T18:37:59.254Z,3.59
2022-12-18T18:40:28.078Z,3.76
2022-12-18T18:43:00.352Z,4.14
2022-12-18T18:45:36.650Z,4.11
2022-12-18T18:48:08.451Z,4.38
2022-12-18T18:50:37.446Z,4.43
2022-12-18T18:53:06.133Z,4.38
2022-12-18T18:55:35.328Z,4.47
2022-12-18T18:58:04.058Z,4.57
2022-12-18T19:00:37.717Z,4.68
2022-12-18T19:03:07.600Z,4.48
2022-12-18T19:05:36.655Z,4.62
2022-12-18T19:08:05.956Z,4.65
2022-12-18T19:10:34.990Z,4.66
2022-12-18T19:13:23.968Z,4.75
2022-12-18T19:15:56.679Z,4.86
2022-12-18T19:18:25.872Z,4.64
2022-12-18T19:21:03.173Z,4.79
2022-12-18T19:23:35.063Z,4.59
2022-12-18T19:26:26.960Z,4.86
2022-12-18T19:28:54.991Z,4.78
2022-12-18T19:31:29.223Z,4.60
2022-12-18T19:34:01.896Z,4.79
2022-12-18T19:36:32.091Z,4.70
2022-12-18T19:39:09.301Z,4.71
2022-12-18T19:41:38.246Z,4.79
2022-12-18T19:44:08.712Z,4.82
2022-12-18T19:46:40.985Z,4.90
2022-12-18T19:49:13.649Z,4.94
2022-12-18T19:51:50.438Z,4.98
2022-12-18T19:54:19.768Z,4.95
2022-12-18T19:56:48.452Z,5.25
2022-12-18T19:59:17.504Z,5.14
2022-12-18T20:01:46.454Z,4.94
2022-12-18T20:04:15.416Z,4.67
2022-12-18T20:06:50.483Z,4.50
2022-12-18T20:09:20.498Z,4.27
2022-12-18T20:11:50.915Z,4.13
2022-12-18T20:14:23.495Z,3.94
2022-12-18T20:16:53.725Z,3.76
2022-12-18T20:19:24.047Z,3.72
2022-12-18T20:21:52.934Z,3.70
2022-12-18T20:24:21.697Z,3.85
2022-12-18T20:26:50.324Z,3.84
2022-12-18T20:29:19.113Z,3.50
2022-12-18T20:31:48.306Z,3.79
2022-12-18T20:34:16.966Z,3.61
2022-12-18T20:36:46.028Z,3.67
2022-12-18T20:39:15.632Z,3.56
2022-12-18T20:41:45.033Z,3.58
2022-12-18T20:44:22.413Z,3.34
2022-12-18T20:46:54.369Z,3.01
2022-12-18T20:49:24.631Z,2.84
2022-12-18T20:51:57.052Z,2.39
2022-12-18T20:54:28.169Z,2.42
2022-12-18T20:56:57.869Z,2.20
2022-12-18T20:59:26.876Z,2.13
2022-12-18T21:01:55.782Z,2.18
2022-12-18T21:04:25.696Z,2.09
2022-12-18T21:07:00.577Z,1.82
2022-12-18T21:09:37.173Z,1.98
2022-12-18T21:12:37.465Z,1.78
2022-12-18T21:15:12.117Z,1.80
2022-12-18T21:17:45.075Z,1.67
2022-12-18T21:20:17.969Z,1.64
2022-12-18T21:22:50.088Z,1.65
2022-12-18T21:25:19.325Z,1.55
2022-12-18T21:27:48.037Z,1.68
2022-12-18T21:30:17.531Z,1.53
2022-12-18T21:32:46.512Z,1.56
2022-12-18T21:35:15.450Z,1.67
2022-12-18T21:37:46.481Z,1.36
2022-12-18T21:40:15.458Z,1.46
2022-12-18T21:43:02.759Z,1.32
2022-12-18T21:45:31.636Z,1.10
2022-12-18T21:48:00.286Z,1.03
2022-12-18T21:50:29.299Z,1.29
2022-12-18T21:53:00.464Z,1.50
2022-12-18T21:55:29.317Z,1.23
2022-12-18T21:57:58.315Z,1.42
2022-12-18T22:00:27.168Z,1.27
2022-12-18T22:03:17.896Z,1.36
2022-12-18T22:05:45.377Z,1.54
2022-12-18T22:08:16.206Z,1.68
2022-12-18T22:10:44.817Z,1.85
2022-12-18T22:13:14.043Z,1.79
2022-12-18T22:15:42.869Z,1.69
2022-12-18T22:18:15.197Z,1.92
2022-12-18T22:20:44.666Z,2.03
2022-12-18T22:23:13.877Z,2.28
2022-12-18T22:25:42.887Z,2.21
2022-12-18T22:28:29.843Z,2.05
2022-12-18T22:30:59.699Z,2.02
2022-12-18T22:33:29.235Z,1.94
2022-12-18T22:35:57.951Z,2.07
2022-12-18T22:38:26.745Z,1.87
2022-12-18T22:40:56.143Z,2.06
2022-12-18T22:43:25.098Z,2.15
2022-12-18T22:45:54.136Z,2.30
2022-12-18T22:48:23.164Z,2.06
2022-12-18T22:50:53.862Z,2.22
2022-12-18T22:53:28.796Z,1.95
2022-12-18T22:56:03.803Z,2.14
2022-12-18T22:58:32.782Z,2.20
2022-12-18T23:01:01.589Z,2.12
2022-12-18T23:03:30.654Z,2.43
2022-12-18T23:06:07.874Z,2.76
2022-12-18T23:08:37.410Z,2.92
2022-12-18T23:11:06.678Z,3.30
2022-12-18T23:13:36.419Z,3.71
2022-12-18T23:16:11.186Z,3.85
2022-12-18T23:18:40.415Z,3.64
2022-12-18T23:21:12.176Z,4.02
2022-12-18T23:23:42.347Z,3.94
2022-12-18T23:26:13.865Z,4.30
2022-12-18T23:28:43.631Z,4.45
2022-12-18T23:31:16.069Z,4.45
2022-12-18T23:33:48.646Z,4.53
2022-12-18T23:36:20.039Z,4.50
2022-12-18T23:38:52.581Z,4.52
2022-12-18T23:41:23.610Z,4.55
2022-12-18T23:43:53.024Z,4.68
2022-12-18T23:46:29.936Z,4.75
2022-12-18T23:49:05.853Z,4.78
2022-12-18T23:51:35.949Z,4.76
2022-12-18T23:54:05.300Z,4.57
2022-12-18T23:56:36.533Z,4.68
2022-12-18T23:59:06.132Z,4.87
